Time;durP1;ratioP1;P1;durP2;ratioP2;P2;SDS_P1;SDS_P2;PMS_P1;PMS_P2;Temp;Humidity;BMP_temperature;BMP_pressure;BME280_temperature;BME280_humidity;BME280_pressure;Samples;Min_cycle;Max_cycle;Signal;HPM_P1;HPM_P2
2022/09/19 00:01:17;;;;;;;9.27;1.77;;;13.20;99.90;;;;;;6212318;23;20024;-83
2022/09/19 00:03:46;;;;;;;12.98;3.08;;;13.20;99.90;;;;;;6187228;23;20031;-82
2022/09/19 00:06:14;;;;;;;9.85;2.05;;;13.10;99.90;;;;;;6213907;22;20046;-82
2022/09/19 00:08:42;;;;;;;14.45;2.05;;;13.10;99.90;;;;;;6241476;22;20038;-83
2022/09/19 00:11:10;;;;;;;8.05;2.15;;;13.10;99.90;;;;;;6216897;22;20046;-82
2022/09/19 00:13:39;;;;;;;9.65;1.80;;;13.10;99.90;;;;;;6242300;22;20435;-82
2022/09/19 00:16:05;;;;;;;9.07;1.70;;;13.10;99.90;;;;;;6242593;22;20097;-83
2022/09/19 00:18:31;;;;;;;15.60;2.40;;;13.10;99.90;;;;;;6216248;22;20435;-82
2022/09/19 00:20:57;;;;;;;10.43;2.55;;;13.10;99.90;;;;;;6217331;22;20015;-83
2022/09/19 00:26:11;;;;;;;13.30;2.83;;;13.10;99.90;;;;;;6241775;22;20073;-82
2022/09/19 00:28:38;;;;;;;9.20;2.15;;;13.10;99.90;;;;;;6216413;22;20797;-83
2022/09/19 00:31:04;;;;;;;10.25;2.22;;;13.20;99.90;;;;;;6217195;22;20058;-83
2022/09/19 00:33:32;;;;;;;10.13;1.90;;;13.20;99.90;;;;;;6241870;22;20351;-83
2022/09/19 00:36:04;;;;;;;10.32;2.45;;;13.20;99.90;;;;;;6242084;22;20016;-83
2022/09/19 00:38:31;;;;;;;7.60;1.90;;;13.20;99.90;;;;;;6191546;22;20026;-82
2022/09/19 00:40:58;;;;;;;11.30;2.08;;;13.30;99.90;;;;;;6217236;22;20015;-82
2022/09/19 00:43:49;;;;;;;7.53;1.75;;;13.30;99.90;;;;;;6217049;22;20397;-83
2022/09/19 00:46:16;;;;;;;9.55;1.92;;;13.30;99.90;;;;;;6241107;22;20024;-83
2022/09/19 00:48:44;;;;;;;7.15;1.70;;;13.30;99.90;;;;;;6216963;22;20023;-82
2022/09/19 00:51:17;;;;;;;7.30;2.17;;;13.30;99.90;;;;;;6216888;22;20026;-83
2022/09/19 00:53:45;;;;;;;6.82;1.90;;;13.30;99.90;;;;;;6241894;22;20023;-82
2022/09/19 00:56:11;;;;;;;6.78;1.75;;;13.30;99.90;;;;;;6216625;22;20016;-83
2022/09/19 00:58:43;;;;;;;10.23;2.30;;;13.30;99.90;;;;;;6215854;22;20019;-82
2022/09/19 01:01:09;;;;;;;10.73;2.30;;;13.40;99.90;;;;;;6192829;22;20023;-82
2022/09/19 01:03:35;;;;;;;9.65;2.45;;;13.30;99.90;;;;;;6216316;22;20450;-82
2022/09/19 01:06:39;;;;;;;8.85;2.08;;;13.40;99.90;;;;;;6170090;23;20020;-82
2022/09/19 01:09:11;;;;;;;15.52;2.35;;;13.40;99.90;;;;;;6211042;23;20027;-82
2022/09/19 01:11:58;;;;;;;12.73;2.20;;;13.40;99.90;;;;;;6211382;23;20343;-82
2022/09/19 01:14:39;;;;;;;9.18;2.08;;;13.40;99.90;;;;;;6211147;23;20090;-82
2022/09/19 01:17:20;;;;;;;8.77;2.00;;;13.40;99.90;;;;;;6211509;23;20012;-82
2022/09/19 01:20:10;;;;;;;9.65;2.28;;;13.40;99.90;;;;;;6211470;23;20074;-83
2022/09/19 01:22:49;;;;;;;7.05;1.65;;;13.40;99.90;;;;;;6211330;23;20024;-82
2022/09/19 01:25:45;;;;;;;10.23;1.90;;;13.40;99.90;;;;;;6211205;23;20122;-83
2022/09/19 01:28:51;;;;;;;11.60;2.30;;;13.40;99.90;;;;;;6186733;23;20031;-83
2022/09/19 01:31:27;;;;;;;8.60;1.88;;;13.40;99.90;;;;;;6170896;23;20073;-83
2022/09/19 01:34:17;;;;;;;5.70;1.70;;;13.40;99.90;;;;;;6213506;23;20515;-83
2022/09/19 01:37:04;;;;;;;8.43;1.95;;;13.40;99.90;;;;;;6212266;23;20027;-83
2022/09/19 01:39:33;;;;;;;13.55;1.90;;;13.40;99.90;;;;;;6212927;23;20098;-83
2022/09/19 01:41:59;;;;;;;12.55;2.15;;;13.40;99.90;;;;;;6188536;23;20027;-83
2022/09/19 01:44:27;;;;;;;6.38;1.85;;;13.50;99.90;;;;;;6162831;23;20047;-82
2022/09/19 01:47:17;;;;;;;10.93;2.08;;;13.40;99.90;;;;;;6188853;23;20024;-83
2022/09/19 01:49:49;;;;;;;9.07;1.98;;;13.50;99.90;;;;;;6188097;23;20016;-83
2022/09/19 01:52:37;;;;;;;11.20;2.33;;;13.50;99.90;;;;;;6188616;23;20031;-82
2022/09/19 01:55:18;;;;;;;7.63;1.85;;;13.50;99.90;;;;;;6188635;23;20024;-83
2022/09/19 01:57:50;;;;;;;8.38;1.75;;;13.50;99.90;;;;;;6188364;23;20060;-82
2022/09/19 02:00:21;;;;;;;7.93;1.58;;;13.40;99.90;;;;;;6188057;23;20019;-83
2022/09/19 02:02:49;;;;;;;8.82;1.77;;;13.40;99.90;;;;;;6213395;23;20448;-83
2022/09/19 02:05:21;;;;;;;10.80;2.28;;;13.40;99.90;;;;;;6200810;22;20093;-82
2022/09/19 02:08:28;;;;;;;8.15;2.00;;;13.40;99.90;;;;;;6218654;22;20046;-82
2022/09/19 02:11:12;;;;;;;8.32;1.75;;;13.40;99.90;;;;;;6243618;22;20027;-83
2022/09/19 02:13:48;;;;;;;5.28;1.55;;;13.30;99.90;;;;;;6217568;22;20099;-83
2022/09/19 02:16:36;;;;;;;6.10;1.67;;;13.40;99.90;;;;;;6218594;22;20020;-83
2022/09/19 02:19:46;;;;;;;5.00;1.83;;;13.40;99.90;;;;;;6217445;22;20027;-82
2022/09/19 02:22:22;;;;;;;9.00;1.70;;;13.40;99.90;;;;;;6126938;23;20021;-82
2022/09/19 02:24:49;;;;;;;6.65;1.58;;;13.40;99.90;;;;;;6235933;22;20023;-83
2022/09/19 02:27:20;;;;;;;5.00;1.38;;;13.30;99.90;;;;;;6193405;22;20020;-83
2022/09/19 02:29:51;;;;;;;4.60;1.60;;;13.30;99.90;;;;;;6243320;22;20324;-82
2022/09/19 02:32:19;;;;;;;8.52;1.42;;;13.30;99.90;;;;;;6243682;22;20074;-83
2022/09/19 02:34:49;;;;;;;8.30;1.90;;;13.40;99.90;;;;;;6193744;22;20016;-83
2022/09/19 02:37:35;;;;;;;5.47;1.95;;;13.30;99.90;;;;;;6218364;22;20023;-83
2022/09/19 02:40:04;;;;;;;;;;;13.30;99.90;;;;;;6217721;22;20020;-82
2022/09/19 02:43:14;;;;;;;9.48;1.63;;;13.30;99.90;;;;;;6218194;22;20263;-82
2022/09/19 02:45:51;;;;;;;11.73;2.10;;;13.20;99.90;;;;;;6150590;23;20040;-82
2022/09/19 02:48:33;;;;;;;7.63;1.80;;;13.20;99.90;;;;;;6126752;23;20021;-83
2022/09/19 02:51:11;;;;;;;11.02;2.10;;;13.20;99.90;;;;;;6210461;22;20095;-82
2022/09/19 02:53:44;;;;;;;8.93;1.80;;;13.20;99.90;;;;;;6217220;22;20426;-83
2022/09/19 02:56:14;;;;;;;8.75;1.60;;;13.30;99.90;;;;;;6242640;22;20016;-83
2022/09/19 02:58:48;;;;;;;8.55;2.00;;;13.30;99.90;;;;;;6217002;22;20016;-83
2022/09/19 03:01:20;;;;;;;6.40;1.60;;;13.20;99.90;;;;;;6243033;22;20051;-83
2022/09/19 03:06:51;;;;;;;10.55;1.70;;;13.20;99.90;;;;;;6211570;23;20048;-82
2022/09/19 03:09:21;;;;;;;5.10;1.52;;;13.20;99.90;;;;;;6186255;23;20309;-83
2022/09/19 03:12:24;;;;;;;5.32;1.73;;;13.20;99.90;;;;;;6212243;23;20019;-83
2022/09/19 03:14:58;;;;;;;6.80;1.55;;;13.30;99.90;;;;;;6171663;23;20028;-83
2022/09/19 03:17:38;;;;;;;9.82;1.83;;;13.30;99.90;;;;;;6189981;23;20016;-83
2022/09/19 03:20:05;;;;;;;12.73;2.15;;;13.30;99.90;;;;;;6212354;23;20351;-82
2022/09/19 03:22:31;;;;;;;6.25;1.65;;;13.30;99.90;;;;;;6162571;23;20016;-82
2022/09/19 03:25:01;;;;;;;7.00;1.50;;;13.30;99.90;;;;;;6162719;23;20031;-82
2022/09/19 03:27:27;;;;;;;8.00;1.88;;;13.30;99.90;;;;;;6211889;23;20016;-83
2022/09/19 03:29:53;;;;;;;7.25;1.70;;;13.30;99.90;;;;;;6186933;23;20448;-82
2022/09/19 03:32:26;;;;;;;7.93;2.30;;;13.30;99.90;;;;;;6187852;23;20029;-82
2022/09/19 03:34:55;;;;;;;6.85;1.63;;;13.30;99.90;;;;;;6187844;23;20237;-83
2022/09/19 03:37:21;;;;;;;7.57;1.95;;;13.30;99.90;;;;;;6163598;23;20031;-83
2022/09/19 03:39:47;;;;;;;8.35;1.75;;;13.30;99.90;;;;;;6160931;23;20462;-82
2022/09/19 03:42:14;;;;;;;11.90;2.25;;;13.30;99.90;;;;;;6161272;23;20024;-83
2022/09/19 03:44:40;;;;;;;10.95;2.10;;;13.20;99.90;;;;;;6162607;23;20028;-82
2022/09/19 03:47:06;;;;;;;9.07;1.63;;;13.20;99.90;;;;;;6212674;23;20058;-83
2022/09/19 03:49:34;;;;;;;10.15;1.63;;;13.10;99.90;;;;;;6211969;23;20020;-83
2022/09/19 03:52:00;;;;;;;6.25;1.77;;;13.10;99.90;;;;;;6162730;23;20035;-82
2022/09/19 03:54:26;;;;;;;8.13;1.65;;;13.10;99.90;;;;;;6161754;23;20020;-84
2022/09/19 03:56:52;;;;;;;8.75;1.50;;;13.10;99.90;;;;;;6161258;23;20159;-83
2022/09/19 03:59:18;;;;;;;4.53;1.10;;;13.00;99.90;;;;;;6137142;23;20020;-83
2022/09/19 04:01:44;;;;;;;6.95;1.65;;;13.10;99.90;;;;;;6161622;23;20400;-82
2022/09/19 04:04:11;;;;;;;7.57;1.70;;;13.10;99.90;;;;;;6162114;23;20016;-82
2022/09/19 04:06:37;;;;;;;7.53;1.45;;;13.10;99.90;;;;;;6240416;22;20342;-83
2022/09/19 04:09:03;;;;;;;5.47;1.58;;;13.10;99.90;;;;;;6241148;22;20110;-84
2022/09/19 04:11:29;;;;;;;8.35;2.53;;;13.60;99.90;;;;;;6216017;22;20030;-82
2022/09/19 04:13:55;;;;;;;8.32;1.65;;;13.10;99.90;;;;;;6192264;22;20016;-83
2022/09/19 04:16:24;;;;;;;7.93;1.50;;;13.10;99.90;;;;;;6216851;22;20020;-82
2022/09/19 04:18:50;;;;;;;8.27;1.50;;;13.10;99.90;;;;;;6216566;22;20642;-84
2022/09/19 04:21:17;;;;;;;6.70;1.63;;;13.10;99.90;;;;;;6217225;22;20064;-82
2022/09/19 04:23:43;;;;;;;6.45;1.73;;;13.10;99.90;;;;;;6191765;22;20122;-83
2022/09/19 04:26:13;;;;;;;6.90;1.60;;;13.10;99.90;;;;;;6241760;22;20098;-83
2022/09/19 04:28:41;;;;;;;5.18;1.65;;;13.10;99.90;;;;;;6216164;22;20019;-83
2022/09/19 04:31:08;;;;;;;9.43;1.73;;;13.10;99.90;;;;;;6242233;22;20012;-83
2022/09/19 04:33:35;;;;;;;8.70;1.60;;;13.20;99.90;;;;;;6216104;22;20439;-83
2022/09/19 04:36:08;;;;;;;7.80;1.65;;;13.20;99.90;;;;;;6217911;22;20058;-83
2022/09/19 04:38:34;;;;;;;8.50;1.60;;;13.20;99.90;;;;;;6216209;22;20394;-83
2022/09/19 04:41:01;;;;;;;9.32;2.17;;;13.20;99.90;;;;;;6242394;22;20473;-83
2022/09/19 04:43:28;;;;;;;8.40;2.00;;;13.20;99.90;;;;;;6242202;22;20447;-84
2022/09/19 04:45:55;;;;;;;5.40;1.80;;;13.20;99.90;;;;;;6241432;22;20073;-83
2022/09/19 04:48:22;;;;;;;7.25;1.50;;;13.20;99.90;;;;;;6241949;22;20019;-83
2022/09/19 04:50:50;;;;;;;6.93;1.70;;;13.30;99.90;;;;;;6216944;22;20015;-83
2022/09/19 04:53:24;;;;;;;9.00;1.77;;;13.20;99.90;;;;;;6241750;22;20019;-83
2022/09/19 04:55:52;;;;;;;8.32;1.70;;;13.20;99.90;;;;;;6241094;22;20358;-83
2022/09/19 04:58:19;;;;;;;6.88;1.70;;;13.20;99.90;;;;;;6241038;22;20019;-82
2022/09/19 05:00:50;;;;;;;7.05;1.75;;;13.20;99.90;;;;;;6215987;22;20020;-83
2022/09/19 05:03:17;;;;;;;7.13;1.40;;;13.30;99.90;;;;;;6217151;22;20015;-83
2022/09/19 05:05:44;;;;;;;11.13;1.77;;;13.20;99.90;;;;;;6197819;23;20026;-83
2022/09/19 05:08:18;;;;;;;6.82;1.50;;;13.20;99.90;;;;;;6210416;23;20059;-83
2022/09/19 05:10:45;;;;;;;7.15;1.60;;;13.30;99.90;;;;;;6186406;23;20026;-83
2022/09/19 05:13:11;;;;;;;7.95;1.85;;;13.10;99.90;;;;;;6186015;23;20016;-83
2022/09/19 05:15:40;;;;;;;8.00;1.50;;;13.20;99.90;;;;;;6186496;23;20065;-83
2022/09/19 05:18:06;;;;;;;4.47;1.30;;;13.10;99.90;;;;;;6185895;23;20024;-82
2022/09/19 05:20:35;;;;;;;8.18;1.40;;;13.00;99.90;;;;;;6187149;23;20027;-83
2022/09/19 05:23:01;;;;;;;7.70;1.10;;;13.00;99.90;;;;;;6186464;23;20159;-83
2022/09/19 05:25:28;;;;;;;7.63;1.50;;;12.90;99.90;;;;;;6161840;23;20463;-82
2022/09/19 05:27:56;;;;;;;6.85;2.20;;;13.00;99.90;;;;;;6185770;23;20115;-83
2022/09/19 05:30:26;;;;;;;5.88;1.50;;;12.90;99.90;;;;;;6186048;23;20024;-83
2022/09/19 05:32:55;;;;;;;6.03;1.60;;;12.90;99.90;;;;;;6211381;23;20083;-83
2022/09/19 05:35:23;;;;;;;4.10;1.30;;;13.00;99.90;;;;;;6185629;23;20024;-82
2022/09/19 05:37:49;;;;;;;7.32;1.90;;;12.30;99.90;;;;;;6210935;23;20016;-82
2022/09/19 05:40:15;;;;;;;8.25;1.77;;;12.90;99.90;;;;;;6210659;23;20027;-81
2022/09/19 05:42:42;;;;;;;6.15;1.90;;;12.90;99.90;;;;;;6161984;23;20012;-82
2022/09/19 05:45:10;;;;;;;16.75;2.13;;;13.00;99.90;;;;;;6186689;23;20444;-82
2022/09/19 05:47:39;;;;;;;9.55;2.38;;;13.00;99.90;;;;;;6186300;23;20095;-83
2022/09/19 05:50:11;;;;;;;7.47;1.40;;;13.00;99.90;;;;;;6186248;23;20023;-83
2022/09/19 05:55:49;;;;;;;4.82;1.33;;;13.10;99.90;;;;;;6190767;23;20082;-83
2022/09/19 05:58:17;;;;;;;6.53;1.95;;;13.20;99.90;;;;;;6179990;23;20071;-82
2022/09/19 06:00:43;;;;;;;7.82;2.00;;;13.10;99.90;;;;;;6161718;23;20024;-83
2022/09/19 06:03:14;;;;;;;5.43;1.27;;;13.10;99.90;;;;;;6187576;23;20039;-88
2022/09/19 06:05:43;;;;;;;10.95;1.77;;;13.10;99.90;;;;;;6203882;22;20095;-82
2022/09/19 06:08:11;;;;;;;8.77;1.50;;;13.10;99.90;;;;;;6247668;22;20012;-83
2022/09/19 06:10:42;;;;;;;13.45;2.22;;;13.10;99.90;;;;;;6191768;22;20019;-84
2022/09/19 06:17:13;;;;;;;;;;;;;;;;;;;;;
2022/09/19 06:23:30;;;;;;;13.43;1.95;;;12.10;99.90;;;;;;6264892;22;20038;-83
2022/09/19 06:25:58;;;;;;;10.38;1.95;;;13.30;99.90;;;;;;6217915;22;20020;-84
2022/09/19 06:28:34;;;;;;;11.13;2.22;;;13.20;99.90;;;;;;6192461;22;20098;-88
2022/09/19 06:31:04;;;;;;;9.05;1.63;;;14.40;99.90;;;;;;6243137;22;20019;-84
2022/09/19 06:33:31;;;;;;;12.32;2.55;;;13.30;99.90;;;;;;6193303;22;20073;-84
2022/09/19 06:36:00;;;;;;;11.70;1.80;;;13.30;99.90;;;;;;6217832;22;20020;-84
2022/09/19 06:38:31;;;;;;;8.35;1.48;;;13.40;99.90;;;;;;6217329;22;20106;-84
2022/09/19 06:40:57;;;;;;;9.02;1.60;;;13.40;99.90;;;;;;6191711;22;20030;-83
2022/09/19 06:43:26;;;;;;;8.50;1.63;;;13.40;99.90;;;;;;6214617;22;20106;-84
2022/09/19 06:45:52;;;;;;;4.97;1.30;;;13.40;99.90;;;;;;6239697;22;20103;-83
2022/09/19 06:48:18;;;;;;;5.55;1.27;;;13.50;99.90;;;;;;6215166;22;20031;-85
2022/09/19 06:50:47;;;;;;;7.65;1.55;;;13.50;99.90;;;;;;6217073;22;20012;-85
2022/09/19 06:53:14;;;;;;;5.25;1.50;;;13.50;99.90;;;;;;6215777;22;20015;-84
2022/09/19 06:55:41;;;;;;;7.43;1.52;;;13.50;99.90;;;;;;6213642;22;20023;-84
2022/09/19 06:58:07;;;;;;;4.65;1.20;;;13.60;99.90;;;;;;6213726;22;20026;-84
2022/09/19 07:00:35;;;;;;;9.18;1.52;;;13.60;99.90;;;;;;6215090;22;20045;-82
2022/09/19 07:03:11;;;;;;;6.55;1.70;;;13.60;99.90;;;;;;6239809;22;20204;-85
2022/09/19 07:05:42;;;;;;;6.15;1.30;;;13.70;99.90;;;;;;6220480;23;20320;-85
2022/09/19 07:08:09;;;;;;;9.30;2.03;;;14.10;99.90;;;;;;6211308;23;20027;-84
2022/09/19 07:10:36;;;;;;;6.35;1.60;;;13.70;99.90;;;;;;6187103;23;20092;-83
2022/09/19 07:13:03;;;;;;;8.15;1.83;;;13.70;99.90;;;;;;6212027;23;20013;-84
2022/09/19 07:15:31;;;;;;;10.45;1.52;;;13.80;99.90;;;;;;6211556;23;20031;-84
2022/09/19 07:17:57;;;;;;;8.63;1.95;;;13.90;99.90;;;;;;6186498;23;20012;-84
2022/09/19 07:20:25;;;;;;;8.07;2.10;;;13.90;99.90;;;;;;6186933;23;20051;-83
2022/09/19 07:23:13;;;;;;;9.00;1.85;;;14.10;99.90;;;;;;6185704;23;20016;-84
2022/09/19 07:25:40;;;;;;;9.27;1.90;;;14.20;99.90;;;;;;6186137;23;20023;-84
2022/09/19 07:28:09;;;;;;;11.93;2.05;;;14.20;99.90;;;;;;6211018;23;20019;-84
2022/09/19 07:30:35;;;;;;;9.15;1.70;;;14.30;99.90;;;;;;6187205;23;20027;-84
2022/09/19 07:33:04;;;;;;;6.57;1.80;;;13.40;99.90;;;;;;6211554;23;20108;-84
2022/09/19 07:35:33;;;;;;;10.48;1.67;;;14.50;99.90;;;;;;6185031;23;20347;-83
2022/09/19 07:37:58;;;;;;;8.70;1.73;;;14.60;99.90;;;;;;6186716;23;20099;-83
2022/09/19 07:40:24;;;;;;;7.50;1.60;;;14.70;99.90;;;;;;6186629;23;20098;-84
2022/09/19 07:42:53;;;;;;;8.30;1.88;;;14.80;99.90;;;;;;6211882;23;20024;-84
2022/09/19 07:45:21;;;;;;;10.88;1.83;;;14.90;99.90;;;;;;6187213;23;20054;-83
2022/09/19 07:47:47;;;;;;;8.20;1.75;;;15.10;99.90;;;;;;6211425;23;20020;-84
2022/09/19 07:50:16;;;;;;;6.68;1.50;;;15.30;99.90;;;;;;6186992;23;20020;-85
2022/09/19 07:52:46;;;;;;;8.10;1.90;;;15.50;99.90;;;;;;6187539;23;20094;-84
2022/09/19 07:55:13;;;;;;;7.07;2.08;;;15.70;99.90;;;;;;6185909;23;20748;-84
2022/09/19 07:57:52;;;;;;;6.00;1.42;;;15.60;99.90;;;;;;6210523;23;20082;-84
2022/09/19 08:00:20;;;;;;;10.65;1.70;;;16.00;99.90;;;;;;6185494;23;20127;-85
2022/09/19 08:03:00;;;;;;;5.03;1.60;;;16.10;99.90;;;;;;6184339;23;20447;-84
2022/09/19 08:05:27;;;;;;;8.00;1.67;;;16.30;99.90;;;;;;6199605;22;20059;-85
2022/09/19 08:07:57;;;;;;;12.65;2.38;;;16.50;99.90;;;;;;6216223;22;20518;-85
2022/09/19 08:10:23;;;;;;;9.02;1.92;;;16.70;99.90;;;;;;6216340;22;20254;-83
2022/09/19 08:12:49;;;;;;;10.40;2.60;;;17.30;99.90;;;;;;6214185;22;20473;-83
2022/09/19 08:15:17;;;;;;;11.52;2.30;;;17.00;99.90;;;;;;6189552;22;20027;-85
2022/09/19 08:17:59;;;;;;;12.68;1.98;;;17.20;99.90;;;;;;6216121;22;20024;-80
2022/09/19 08:20:33;;;;;;;7.03;2.58;;;17.20;99.90;;;;;;6240994;22;20038;-87
2022/09/19 08:23:11;;;;;;;8.60;1.90;;;18.40;99.90;;;;;;6219388;22;20019;-88
2022/09/19 08:25:38;;;;;;;7.35;1.70;;;17.20;99.90;;;;;;6216081;22;20090;-84
2022/09/19 08:28:05;;;;;;;10.50;1.98;;;17.20;99.90;;;;;;6240261;22;20450;-84
2022/09/19 08:30:33;;;;;;;7.97;1.77;;;17.10;99.90;;;;;;6217617;22;20637;-83
2022/09/19 08:33:01;;;;;;;9.20;2.00;;;17.00;99.90;;;;;;6216363;22;20024;-83
2022/09/19 08:35:43;;;;;;;8.90;2.25;;;16.90;99.90;;;;;;6217571;22;20078;-86
2022/09/19 08:38:11;;;;;;;9.27;2.40;;;16.60;99.90;;;;;;6241058;22;20069;-83
2022/09/19 08:40:39;;;;;;;10.82;2.58;;;16.80;99.90;;;;;;6215587;22;20103;-84
2022/09/19 08:43:33;;;;;;;6.25;1.45;;;16.50;99.90;;;;;;6215354;22;20051;-84
2022/09/19 08:46:30;;;;;;;7.95;1.80;;;16.80;99.90;;;;;;6241338;22;20016;-84
2022/09/19 08:49:23;;;;;;;9.73;1.60;;;16.70;99.90;;;;;;6215056;22;20157;-84
2022/09/19 08:52:34;;;;;;;8.73;2.13;;;16.80;99.90;;;;;;6216092;22;20020;-85
2022/09/19 08:55:02;;;;;;;10.25;1.85;;;16.80;99.90;;;;;;6181242;22;20065;-84
2022/09/19 08:57:38;;;;;;;6.70;2.00;;;16.70;99.90;;;;;;6242441;22;20073;-84
2022/09/19 09:00:13;;;;;;;7.65;1.80;;;16.60;99.90;;;;;;6215837;22;20026;-84
2022/09/19 09:02:53;;;;;;;9.60;1.75;;;16.60;99.90;;;;;;6241762;22;20019;-84
2022/09/19 09:05:44;;;;;;;8.45;1.75;;;16.80;99.90;;;;;;6201992;23;20090;-85
2022/09/19 09:08:33;;;;;;;9.13;1.85;;;17.00;99.90;;;;;;6209954;23;20028;-84
2022/09/19 09:11:05;;;;;;;9.93;2.00;;;17.50;99.90;;;;;;6210596;23;20392;-85
2022/09/19 09:13:49;;;;;;;8.60;1.77;;;17.90;99.90;;;;;;6187679;23;20059;-90
2022/09/19 09:16:59;;;;;;;9.95;2.05;;;18.10;99.90;;;;;;6190443;23;20024;-86
2022/09/19 09:19:31;;;;;;;12.95;1.92;;;18.10;99.90;;;;;;6085321;23;20018;-85
2022/09/19 09:22:21;;;;;;;7.50;1.55;;;17.70;99.90;;;;;;6188367;23;20444;-84
2022/09/19 09:25:35;;;;;;;6.93;1.55;;;17.40;99.90;;;;;;6189894;23;20709;-89
2022/09/19 09:28:26;;;;;;;5.90;1.63;;;16.60;99.90;;;;;;6161800;23;20020;-83
2022/09/19 09:31:24;;;;;;;9.00;1.45;;;16.90;99.90;;;;;;6211230;23;20360;-86
2022/09/19 09:34:10;;;;;;;8.20;1.70;;;16.80;99.90;;;;;;6211450;23;20023;-84
2022/09/19 09:36:45;;;;;;;;;;;16.70;99.90;;;;;;6188775;23;20052;-89
2022/09/19 09:39:49;;;;;;;7.35;1.73;;;16.80;99.90;;;;;;6187956;23;20165;-87
2022/09/19 09:42:21;;;;;;;8.00;2.17;;;16.90;99.90;;;;;;6188563;23;20020;-86
2022/09/19 09:45:03;;;;;;;8.45;2.15;;;17.20;99.90;;;;;;6189553;23;20031;-85
2022/09/19 09:48:10;;;;;;;7.38;1.70;;;17.40;99.90;;;;;;6190700;23;20016;-86
2022/09/19 09:51:15;;;;;;;6.22;1.40;;;17.40;99.90;;;;;;6215374;23;20098;-88
2022/09/19 09:57:28;;;;;;;6.85;2.00;;;17.10;99.90;;;;;;6172402;23;20099;-86
2022/09/19 10:03:34;;;;;;;9.13;2.38;;;16.10;99.90;;;;;;6194634;23;20034;-86
2022/09/19 10:06:24;;;;;;;13.60;2.85;;;15.80;99.90;;;;;;6238392;22;20015;-88
2022/09/19 10:09:14;;;;;;;10.20;2.30;;;15.80;99.90;;;;;;6247118;22;20457;-88
2022/09/19 10:11:51;;;;;;;7.05;2.30;;;16.00;99.90;;;;;;6222397;22;20072;-85
2022/09/19 10:14:23;;;;;;;10.05;1.70;;;16.20;99.90;;;;;;6228817;22;20012;-85
2022/09/19 10:16:53;;;;;;;5.35;1.70;;;16.40;99.90;;;;;;6221133;22;20020;-85
2022/09/19 10:19:40;;;;;;;6.80;2.25;;;16.50;99.90;;;;;;6221410;22;20035;-85
2022/09/19 10:22:15;;;;;;;8.75;2.50;;;16.70;99.90;;;;;;6221250;22;20103;-86
2022/09/19 10:24:51;;;;;;;9.10;2.03;;;16.90;99.90;;;;;;6222375;22;20430;-88
2022/09/19 10:27:31;;;;;;;8.02;1.88;;;17.30;99.90;;;;;;6220459;22;20055;-86
2022/09/19 10:30:19;;;;;;;8.95;2.10;;;17.50;99.90;;;;;;6245874;22;20012;-85
2022/09/19 10:32:47;;;;;;;7.05;1.88;;;17.70;99.90;;;;;;6244116;22;20016;-85
2022/09/19 10:35:33;;;;;;;8.80;1.35;;;17.80;99.90;;;;;;6220628;22;20023;-87
2022/09/19 10:38:03;;;;;;;9.50;2.05;;;18.10;99.90;;;;;;6220025;22;20106;-86
2022/09/19 10:40:32;;;;;;;8.82;2.08;;;18.40;99.90;;;;;;6246140;22;20065;-86
2022/09/19 10:43:21;;;;;;;9.77;1.92;;;18.40;99.90;;;;;;6218470;22;20019;-86
2022/09/19 10:45:50;;;;;;;8.30;1.90;;;18.30;99.90;;;;;;6196997;22;20024;-84
2022/09/19 10:48:26;;;;;;;7.50;1.67;;;18.20;99.90;;;;;;6240203;22;20328;-84
2022/09/19 10:50:52;;;;;;;;;;;18.20;99.90;;;;;;6243513;22;20118;-84
2022/09/19 10:53:27;;;;;;;7.10;1.63;;;18.00;99.90;;;;;;6215701;22;20056;-83
2022/09/19 10:55:55;;;;;;;6.95;1.50;;;18.20;99.90;;;;;;6216218;22;20789;-84
2022/09/19 10:58:28;;;;;;;5.78;1.40;;;18.30;99.90;;;;;;6240887;22;20506;-84
2022/09/19 11:00:58;;;;;;;8.75;1.40;;;18.30;99.90;;;;;;6191460;22;20024;-83
2022/09/19 11:03:28;;;;;;;5.03;1.48;;;18.20;99.90;;;;;;6216955;22;20030;-83
2022/09/19 11:06:16;;;;;;;5.80;1.40;;;18.20;99.90;;;;;;6194959;23;20094;-83
2022/09/19 11:08:51;;;;;;;9.35;1.63;;;18.20;99.90;;;;;;6211354;23;20019;-84
2022/09/19 11:11:25;;;;;;;8.60;1.70;;;18.30;99.90;;;;;;6186643;23;20043;-83
2022/09/19 11:14:19;;;;;;;9.27;1.80;;;18.40;99.90;;;;;;6188146;23;20534;-83
2022/09/19 11:17:09;;;;;;;9.88;2.30;;;18.70;99.90;;;;;;6182407;23;20089;-83
2022/09/19 11:19:49;;;;;;;11.20;1.60;;;19.20;99.90;;;;;;6185869;23;20055;-84
2022/09/19 11:22:53;;;;;;;6.80;1.60;;;19.60;99.90;;;;;;6186348;23;20020;-84
2022/09/19 11:25:48;;;;;;;7.28;1.75;;;20.10;99.90;;;;;;6210446;23;20024;-83
2022/09/19 11:28:39;;;;;;;10.43;1.65;;;20.30;99.90;;;;;;6209469;23;20139;-84
2022/09/19 11:31:27;;;;;;;5.57;1.67;;;20.70;99.90;;;;;;6210728;23;20012;-83
2022/09/19 11:34:28;;;;;;;9.43;1.92;;;20.80;99.90;;;;;;6186795;23;20024;-84
2022/09/19 11:37:14;;;;;;;7.93;1.73;;;20.60;99.90;;;;;;6170694;23;20051;-84
2022/09/19 11:40:06;;;;;;;6.33;1.30;;;20.00;99.90;;;;;;6211291;23;20028;-85
2022/09/19 11:42:59;;;;;;;6.60;1.70;;;19.60;99.90;;;;;;6205849;23;20243;-84
2022/09/19 11:45:36;;;;;;;10.60;1.98;;;19.30;99.90;;;;;;6184696;23;20020;-84
2022/09/19 11:48:22;;;;;;;8.15;1.88;;;18.90;99.90;;;;;;6210560;23;20035;-83
2022/09/19 11:50:59;;;;;;;8.20;2.40;;;18.80;99.90;;;;;;6186703;23;20134;-84
2022/09/19 11:53:35;;;;;;;5.93;1.60;;;18.60;99.90;;;;;;6187546;23;20020;-83
2022/09/19 11:56:21;;;;;;;10.63;1.90;;;18.70;99.90;;;;;;6185929;23;20030;-83
2022/09/19 11:58:56;;;;;;;6.22;1.73;;;18.70;99.90;;;;;;6186196;23;20027;-82
2022/09/19 12:01:52;;;;;;;8.65;1.88;;;18.90;99.90;;;;;;6211560;23;20295;-84
2022/09/19 12:04:26;;;;;;;5.82;1.50;;;19.30;99.90;;;;;;6189718;22;20514;-84
2022/09/19 12:06:59;;;;;;;6.27;1.63;;;19.90;99.90;;;;;;6219748;22;20031;-83
2022/09/19 12:09:44;;;;;;;5.32;1.67;;;20.30;99.90;;;;;;6243638;22;20562;-84
2022/09/19 12:12:18;;;;;;;9.07;1.92;;;20.80;99.90;;;;;;6244840;22;20019;-83
2022/09/19 12:14:55;;;;;;;7.30;1.95;;;21.40;99.90;;;;;;6220182;22;20020;-83
2022/09/19 12:17:42;;;;;;;7.78;2.05;;;21.70;99.90;;;;;;6244369;22;20045;-84
2022/09/19 12:20:27;;;;;;;7.47;1.75;;;21.90;99.90;;;;;;6218447;22;20087;-83
2022/09/19 12:26:11;;;;;;;9.05;2.10;;;21.80;99.90;;;;;;6224581;22;20028;-84
2022/09/19 12:28:42;;;;;;;7.88;1.92;;;21.50;99.90;;;;;;6242990;22;20090;-88
2022/09/19 12:31:12;;;;;;;8.57;2.05;;;21.00;99.90;;;;;;6220149;22;20016;-90
2022/09/19 12:33:40;;;;;;;8.48;2.20;;;20.60;99.90;;;;;;6244807;22;20023;-91
2022/09/19 12:36:20;;;;;;;9.95;2.30;;;20.60;99.90;;;;;;6219804;22;20022;-90
2022/09/19 12:39:19;;;;;;;9.02;2.15;;;20.80;99.90;;;;;;6220410;22;20016;-84
2022/09/19 12:41:55;;;;;;;10.70;2.17;;;21.00;99.90;;;;;;6219499;22;20075;-84
2022/09/19 12:44:39;;;;;;;9.77;2.00;;;21.20;99.90;;;;;;6220365;22;20023;-84
2022/09/19 12:47:22;;;;;;;8.02;2.20;;;21.40;98.90;;;;;;6244996;22;20027;-84
2022/09/19 12:50:15;;;;;;;6.60;1.80;;;21.90;99.10;;;;;;6245169;22;20023;-85
2022/09/19 12:52:48;;;;;;;7.65;2.08;;;22.20;97.70;;;;;;6244810;22;20061;-84
2022/09/19 12:55:40;;;;;;;8.68;1.90;;;22.70;97.30;;;;;;6244607;22;20073;-84
2022/09/19 12:58:20;;;;;;;5.60;1.80;;;23.00;96.20;;;;;;6198439;22;20099;-85
2022/09/19 13:00:47;;;;;;;7.55;1.80;;;23.20;94.30;;;;;;6245203;22;20324;-85
2022/09/19 13:03:21;;;;;;;6.43;1.45;;;23.30;94.20;;;;;;6219609;22;20024;-85
2022/09/19 13:05:56;;;;;;;13.20;1.63;;;23.30;93.70;;;;;;6243996;22;20574;-85
2022/09/19 13:08:34;;;;;;;6.90;1.90;;;23.50;93.20;;;;;;6218602;22;20058;-85
2022/09/19 13:11:06;;;;;;;6.93;1.60;;;23.60;92.30;;;;;;6219637;22;20720;-86
2022/09/19 13:13:53;;;;;;;6.80;1.92;;;23.40;91.40;;;;;;6219149;22;20023;-92
2022/09/19 13:16:28;;;;;;;7.80;1.65;;;23.20;91.20;;;;;;6244733;22;20043;-88
2022/09/19 13:24:50;;;;;;;8.05;1.50;;;23.00;91.50;;;;;;6243845;22;20028;-88
2022/09/19 13:27:16;;;;;;;5.50;1.90;;;23.10;90.50;;;;;;6242776;22;20015;-87
2022/09/19 13:29:45;;;;;;;7.38;1.77;;;23.20;91.10;;;;;;6219719;22;20019;-86
2022/09/19 13:32:52;;;;;;;4.53;1.27;;;23.00;90.40;;;;;;6243381;22;20027;-86
2022/09/19 13:35:24;;;;;;;13.20;1.52;;;23.00;88.00;;;;;;6218183;22;20104;-90
2022/09/19 13:37:56;;;;;;;8.38;1.50;;;22.90;90.00;;;;;;6217135;22;20454;-85
2022/09/19 13:40:39;;;;;;;5.85;1.42;;;23.10;89.00;;;;;;6214927;22;20065;-85
2022/09/19 13:43:13;;;;;;;5.88;1.52;;;23.10;88.90;;;;;;6214567;22;20026;-86
2022/09/19 13:45:39;;;;;;;8.38;1.40;;;23.20;86.90;;;;;;6215509;22;20067;-85
2022/09/19 13:48:27;;;;;;;3.58;1.15;;;23.20;86.90;;;;;;6240469;22;20339;-86
2022/09/19 13:50:56;;;;;;;5.68;1.48;;;23.10;81.20;;;;;;6216809;22;20027;-85
2022/09/19 13:53:40;;;;;;;5.32;1.08;;;23.20;84.00;;;;;;6215896;22;20024;-85
2022/09/19 13:56:34;;;;;;;4.75;1.60;;;23.40;83.30;;;;;;6242529;22;20027;-84
2022/09/19 13:59:18;;;;;;;6.93;1.90;;;22.80;83.20;;;;;;6212445;22;20020;-85
2022/09/19 14:02:00;;;;;;;6.68;1.30;;;23.30;81.70;;;;;;6216195;22;20075;-85